createdAt,value
2023-03-22T00:04:48.696Z,26.3
2023-03-22T00:09:49.721Z,29.2
2023-03-22T00:14:52.315Z,25.7
2023-03-22T00:19:52.858Z,25.6
2023-03-22T00:24:53.373Z,27
2023-03-22T00:29:53.901Z,26.1
2023-03-22T00:34:54.733Z,28
2023-03-22T00:39:55.387Z,25.7
2023-03-22T00:44:55.841Z,25
2023-03-22T00:49:56.594Z,27.2
2023-03-22T00:54:57.036Z,27.9
2023-03-22T00:59:57.496Z,28.8
2023-03-22T01:04:58.155Z,24.4
2023-03-22T01:09:58.676Z,26
2023-03-22T01:14:59.088Z,26.9
2023-03-22T01:20:00.341Z,28.4
2023-03-22T01:25:00.873Z,25.5
2023-03-22T01:30:01.363Z,26.6
2023-03-22T01:35:01.974Z,26.6
2023-03-22T01:40:02.682Z,26
2023-03-22T01:45:03.196Z,28.1
2023-03-22T01:50:03.796Z,28.3
2023-03-22T01:55:04.309Z,28.9
2023-03-22T02:05:05.958Z,33.1
2023-03-22T02:10:06.495Z,50.9
2023-03-22T02:15:07.232Z,37.7
2023-03-22T02:20:08.309Z,35.8
2023-03-22T02:25:09.119Z,29.1
2023-03-22T02:30:09.836Z,27.9
2023-03-22T02:35:10.707Z,28.1
2023-03-22T02:40:11.512Z,26.5
2023-03-22T02:45:12.252Z,27.5
2023-03-22T02:50:13.002Z,29
2023-03-22T02:55:13.582Z,29.1
2023-03-22T03:00:14.174Z,29.2
2023-03-22T03:05:14.999Z,28.1
2023-03-22T03:10:15.739Z,28.4
2023-03-22T03:15:16.381Z,30.8
2023-03-22T03:20:17.111Z,27
2023-03-22T03:25:17.679Z,29
2023-03-22T03:35:18.992Z,27.1
2023-03-22T03:40:19.721Z,30
2023-03-22T03:45:20.176Z,30.2
2023-03-22T03:50:21.263Z,37.2
2023-03-22T03:55:21.878Z,35.3
2023-03-22T04:00:22.459Z,33
2023-03-22T04:05:23.120Z,33.7
2023-03-22T04:10:23.670Z,31.8
2023-03-22T04:15:24.592Z,36.9
2023-03-22T04:20:25.559Z,34.4
2023-03-22T04:25:26.025Z,33.2
2023-03-22T04:30:26.555Z,32.5
2023-03-22T04:35:27.231Z,40.3
2023-03-22T04:40:27.822Z,34.9
2023-03-22T04:45:28.520Z,32.6
2023-03-22T04:50:29.160Z,41.5
2023-03-22T04:55:29.752Z,38
2023-03-22T05:00:30.402Z,33.2
2023-03-22T05:05:31.004Z,30.6
2023-03-22T05:10:31.638Z,40.4
2023-03-22T05:15:32.219Z,46.4
2023-03-22T05:20:32.733Z,36.2
2023-03-22T05:25:33.186Z,39.5
2023-03-22T05:30:33.580Z,36.8
2023-03-22T05:35:34.135Z,47.4
2023-03-22T05:40:34.902Z,59.9
2023-03-22T05:45:35.414Z,46.8
2023-03-22T05:50:36.013Z,29.1
2023-03-22T05:55:36.657Z,27.7
2023-03-22T06:00:37.700Z,26.1
2023-03-22T06:05:39.072Z,30.3
2023-03-22T06:10:39.833Z,27.8
2023-03-22T06:15:40.912Z,37.1
2023-03-22T06:20:41.877Z,24.7
2023-03-22T06:25:42.778Z,23.1
2023-03-22T06:30:43.520Z,24.4
2023-03-22T06:35:44.304Z,23.8
2023-03-22T06:40:51.014Z,19.8
2023-03-22T06:45:51.645Z,22.9
2023-03-22T06:50:52.146Z,27.4
2023-03-22T06:55:54.939Z,21.4
2023-03-22T07:00:56.010Z,18.1
2023-03-22T07:05:56.737Z,19.4
2023-03-22T07:10:57.164Z,18.2
2023-03-22T07:15:57.641Z,16.9
2023-03-22T07:20:58.182Z,17.4
2023-03-22T07:25:59.599Z,17.1
2023-03-22T07:31:00.122Z,15.9
2023-03-22T07:36:00.940Z,15
2023-03-22T07:41:01.724Z,17.4
2023-03-22T07:46:02.361Z,16.9
2023-03-22T07:51:03.211Z,18.1
2023-03-22T07:56:03.703Z,19.5
2023-03-22T08:01:04.198Z,18
2023-03-22T08:06:04.955Z,18
2023-03-22T08:11:05.630Z,18.8
2023-03-22T08:16:06.243Z,15.4
2023-03-22T08:21:07.338Z,13.5
2023-03-22T08:26:07.885Z,14.7
2023-03-22T08:31:08.545Z,11.9
2023-03-22T08:36:09.388Z,13.6
2023-03-22T08:41:09.954Z,14.6
2023-03-22T08:46:10.549Z,15.9
2023-03-22T08:51:11.193Z,10.7
2023-03-22T08:56:11.857Z,12.2
2023-03-22T09:01:12.467Z,11.5
2023-03-22T09:06:13.247Z,11.3
2023-03-22T09:11:14.986Z,12
2023-03-22T09:16:17.796Z,12.4
2023-03-22T09:21:18.347Z,13.4
2023-03-22T09:26:19.208Z,16.3
2023-03-22T09:31:20.760Z,14.4
2023-03-22T09:36:21.686Z,12.2
2023-03-22T09:41:22.314Z,11.9
2023-03-22T09:46:22.973Z,9.5
2023-03-22T09:51:23.668Z,11.1
2023-03-22T09:56:24.227Z,13
2023-03-22T10:01:24.995Z,11.1
2023-03-22T10:06:26.493Z,13.4
2023-03-22T10:11:29.547Z,13.1
2023-03-22T10:16:30.163Z,15.1
2023-03-22T10:21:30.937Z,13.9
2023-03-22T10:26:35.773Z,14
2023-03-22T10:31:36.291Z,10
2023-03-22T10:36:36.949Z,9.6
2023-03-22T10:41:37.449Z,8.6
2023-03-22T10:46:38.064Z,11.8
2023-03-22T10:51:38.999Z,7.3
2023-03-22T10:56:39.456Z,9.6
2023-03-22T11:01:40.115Z,7.9
2023-03-22T11:06:41.532Z,7.9
2023-03-22T11:11:42.028Z,10.3
2023-03-22T11:16:42.856Z,6.5
2023-03-22T11:21:43.477Z,26.2
2023-03-22T11:26:44.865Z,7.9
2023-03-22T11:31:45.456Z,7.5
2023-03-22T11:41:46.720Z,8
2023-03-22T11:46:54.858Z,6.4
2023-03-22T11:51:55.404Z,7
2023-03-22T11:56:55.858Z,6
2023-03-22T12:01:56.301Z,9
2023-03-22T12:06:56.851Z,9
2023-03-22T12:11:57.320Z,11.9
2023-03-22T12:16:57.980Z,21.5
2023-03-22T12:21:58.661Z,13.9
2023-03-22T12:26:59.139Z,8.6
2023-03-22T12:31:59.630Z,8.5
2023-03-22T12:37:00.696Z,7.8
2023-03-22T12:42:01.494Z,9.1
2023-03-22T12:47:01.969Z,17.9
2023-03-22T12:52:02.837Z,6.4
2023-03-22T12:57:03.707Z,7.1
2023-03-22T13:02:04.273Z,6.1
2023-03-22T13:07:05.706Z,8.6
2023-03-22T13:12:06.227Z,9.2
2023-03-22T13:17:09.629Z,7.7
2023-03-22T13:22:10.528Z,16.1
2023-03-22T13:27:11.008Z,8.2
2023-03-22T13:32:11.681Z,10.5
2023-03-22T13:37:27.142Z,6.7
2023-03-22T13:42:18.867Z,13.9
2023-03-22T13:47:19.271Z,6.5
2023-03-22T13:52:25.547Z,15.8
2023-03-22T13:57:27.825Z,11.9
2023-03-22T14:02:28.511Z,7.5
2023-03-22T14:07:29.287Z,7.8
2023-03-22T14:12:32.653Z,5.7
2023-03-22T14:17:34.670Z,4.3
